sensor_id;sensor_type;location;lat;lon;timestamp;P1;durP1;ratioP1;P2;durP2;ratioP2
80799;SDS011;70202;52.238;10.680;2023-08-06T00:00:37;0.75;;;0.30;;
80799;SDS011;70202;52.238;10.680;2023-08-06T00:01:37;0.50;;;0.40;;
80799;SDS011;70202;52.238;10.680;2023-08-06T00:02:38;0.28;;;0.28;;
80799;SDS011;70202;52.238;10.680;2023-08-06T00:03:38;0.80;;;0.40;;
80799;SDS011;70202;52.238;10.680;2023-08-06T00:04:39;0.52;;;0.30;;
80799;SDS011;70202;52.238;10.680;2023-08-06T00:05:41;0.32;;;0.20;;
80799;SDS011;70202;52.238;10.680;2023-08-06T00:06:43;0.30;;;0.30;;
80799;SDS011;70202;52.238;10.680;2023-08-06T00:07:44;0.40;;;0.28;;
80799;SDS011;70202;52.238;10.680;2023-08-06T00:08:45;0.20;;;0.20;;
80799;SDS011;70202;52.238;10.680;2023-08-06T00:09:45;0.20;;;0.20;;
80799;SDS011;70202;52.238;10.680;2023-08-06T00:10:47;0.20;;;0.20;;
80799;SDS011;70202;52.238;10.680;2023-08-06T00:11:48;0.47;;;0.28;;
80799;SDS011;70202;52.238;10.680;2023-08-06T00:12:49;0.30;;;0.30;;
80799;SDS011;70202;52.238;10.680;2023-08-06T00:13:49;0.60;;;0.20;;
80799;SDS011;70202;52.238;10.680;2023-08-06T00:14:50;0.40;;;0.30;;
80799;SDS011;70202;52.238;10.680;2023-08-06T00:15:51;0.50;;;0.22;;
80799;SDS011;70202;52.238;10.680;2023-08-06T00:16:51;0.28;;;0.20;;
80799;SDS011;70202;52.238;10.680;2023-08-06T00:17:51;0.20;;;0.20;;
80799;SDS011;70202;52.238;10.680;2023-08-06T00:18:52;0.25;;;0.10;;
80799;SDS011;70202;52.238;10.680;2023-08-06T00:19:52;0.10;;;0.10;;
80799;SDS011;70202;52.238;10.680;2023-08-06T00:20:52;0.47;;;0.20;;
80799;SDS011;70202;52.238;10.680;2023-08-06T00:21:53;0.28;;;0.28;;
80799;SDS011;70202;52.238;10.680;2023-08-06T00:22:53;0.38;;;0.20;;
80799;SDS011;70202;52.238;10.680;2023-08-06T00:23:53;0.47;;;0.30;;
80799;SDS011;70202;52.238;10.680;2023-08-06T00:24:54;0.43;;;0.13;;
80799;SDS011;70202;52.238;10.680;2023-08-06T00:25:57;0.22;;;0.15;;
80799;SDS011;70202;52.238;10.680;2023-08-06T00:26:57;0.47;;;0.17;;
80799;SDS011;70202;52.238;10.680;2023-08-06T00:27:58;0.20;;;0.10;;
80799;SDS011;70202;52.238;10.680;2023-08-06T00:28:58;0.20;;;0.20;;
80799;SDS011;70202;52.238;10.680;2023-08-06T00:29:59;0.00;;;0.00;;
80799;SDS011;70202;52.238;10.680;2023-08-06T00:30:59;0.70;;;0.20;;
80799;SDS011;70202;52.238;10.680;2023-08-06T00:31:59;0.85;;;0.22;;
80799;SDS011;70202;52.238;10.680;2023-08-06T00:33:00;0.40;;;0.20;;
80799;SDS011;70202;52.238;10.680;2023-08-06T00:34:00;0.40;;;0.28;;
80799;SDS011;70202;52.238;10.680;2023-08-06T00:35:01;0.10;;;0.10;;
80799;SDS011;70202;52.238;10.680;2023-08-06T00:36:01;0.20;;;0.20;;
80799;SDS011;70202;52.238;10.680;2023-08-06T00:37:02;0.20;;;0.10;;
80799;SDS011;70202;52.238;10.680;2023-08-06T00:38:02;0.22;;;0.15;;
80799;SDS011;70202;52.238;10.680;2023-08-06T00:39:02;0.28;;;0.20;;
80799;SDS011;70202;52.238;10.680;2023-08-06T00:40:03;0.65;;;0.25;;
80799;SDS011;70202;52.238;10.680;2023-08-06T00:41:04;0.22;;;0.17;;
80799;SDS011;70202;52.238;10.680;2023-08-06T00:42:04;1.38;;;0.40;;
80799;SDS011;70202;52.238;10.680;2023-08-06T00:43:05;0.25;;;0.05;;
80799;SDS011;70202;52.238;10.680;2023-08-06T00:44:05;0.60;;;0.30;;
80799;SDS011;70202;52.238;10.680;2023-08-06T00:45:05;0.28;;;0.03;;
80799;SDS011;70202;52.238;10.680;2023-08-06T00:46:06;0.20;;;0.20;;
80799;SDS011;70202;52.238;10.680;2023-08-06T00:47:07;0.50;;;0.32;;
80799;SDS011;70202;52.238;10.680;2023-08-06T00:48:08;0.30;;;0.13;;
80799;SDS011;70202;52.238;10.680;2023-08-06T00:49:08;0.20;;;0.20;;
80799;SDS011;70202;52.238;10.680;2023-08-06T00:50:08;0.22;;;0.20;;
80799;SDS011;70202;52.238;10.680;2023-08-06T00:51:09;0.20;;;0.20;;
80799;SDS011;70202;52.238;10.680;2023-08-06T00:52:11;0.20;;;0.10;;
80799;SDS011;70202;52.238;10.680;2023-08-06T00:53:13;0.30;;;0.20;;
80799;SDS011;70202;52.238;10.680;2023-08-06T00:54:13;0.20;;;0.10;;
80799;SDS011;70202;52.238;10.680;2023-08-06T00:55:14;0.93;;;0.30;;
80799;SDS011;70202;52.238;10.680;2023-08-06T00:56:15;0.10;;;0.10;;
80799;SDS011;70202;52.238;10.680;2023-08-06T00:57:16;0.20;;;0.20;;
80799;SDS011;70202;52.238;10.680;2023-08-06T00:58:16;0.43;;;0.20;;
80799;SDS011;70202;52.238;10.680;2023-08-06T00:59:17;0.10;;;0.10;;
80799;SDS011;70202;52.238;10.680;2023-08-06T01:00:18;0.10;;;0.10;;
80799;SDS011;70202;52.238;10.680;2023-08-06T01:01:19;0.30;;;0.15;;
80799;SDS011;70202;52.238;10.680;2023-08-06T01:02:20;0.20;;;0.20;;
80799;SDS011;70202;52.238;10.680;2023-08-06T01:03:20;0.10;;;0.10;;
80799;SDS011;70202;52.238;10.680;2023-08-06T01:04:21;0.40;;;0.20;;
80799;SDS011;70202;52.238;10.680;2023-08-06T01:05:23;0.13;;;0.13;;
80799;SDS011;70202;52.238;10.680;2023-08-06T01:06:28;0.35;;;0.20;;
80799;SDS011;70202;52.238;10.680;2023-08-06T01:08:58;0.35;;;0.20;;
80799;SDS011;70202;52.238;10.680;2023-08-06T01:10:19;0.13;;;0.13;;
80799;SDS011;70202;52.238;10.680;2023-08-06T01:12:55;0.22;;;0.17;;
80799;SDS011;70202;52.238;10.680;2023-08-06T01:14:22;0.10;;;0.10;;
80799;SDS011;70202;52.238;10.680;2023-08-06T01:15:29;0.63;;;0.30;;
80799;SDS011;70202;52.238;10.680;2023-08-06T01:16:35;0.20;;;0.10;;
80799;SDS011;70202;52.238;10.680;2023-08-06T01:17:35;0.20;;;0.20;;
80799;SDS011;70202;52.238;10.680;2023-08-06T01:18:36;0.63;;;0.10;;
80799;SDS011;70202;52.238;10.680;2023-08-06T01:19:39;0.10;;;0.08;;
80799;SDS011;70202;52.238;10.680;2023-08-06T01:20:39;0.45;;;0.28;;
80799;SDS011;70202;52.238;10.680;2023-08-06T01:21:39;0.47;;;0.30;;
80799;SDS011;70202;52.238;10.680;2023-08-06T01:22:40;0.20;;;0.17;;
80799;SDS011;70202;52.238;10.680;2023-08-06T01:23:40;0.73;;;0.20;;
80799;SDS011;70202;52.238;10.680;2023-08-06T01:24:43;0.93;;;0.20;;
80799;SDS011;70202;52.238;10.680;2023-08-06T01:28:15;0.30;;;0.20;;
80799;SDS011;70202;52.238;10.680;2023-08-06T01:29:24;0.40;;;0.17;;
80799;SDS011;70202;52.238;10.680;2023-08-06T01:30:31;1.33;;;0.35;;
80799;SDS011;70202;52.238;10.680;2023-08-06T01:31:37;0.10;;;0.08;;
80799;SDS011;70202;52.238;10.680;2023-08-06T01:32:38;0.00;;;0.00;;
80799;SDS011;70202;52.238;10.680;2023-08-06T01:33:43;0.38;;;0.20;;
80799;SDS011;70202;52.238;10.680;2023-08-06T01:34:47;0.45;;;0.20;;
80799;SDS011;70202;52.238;10.680;2023-08-06T01:35:49;0.40;;;0.20;;
80799;SDS011;70202;52.238;10.680;2023-08-06T01:36:51;0.28;;;0.22;;
80799;SDS011;70202;52.238;10.680;2023-08-06T01:37:52;0.20;;;0.20;;
80799;SDS011;70202;52.238;10.680;2023-08-06T01:38:53;0.22;;;0.10;;
80799;SDS011;70202;52.238;10.680;2023-08-06T01:39:54;0.25;;;0.25;;
80799;SDS011;70202;52.238;10.680;2023-08-06T01:40:54;0.20;;;0.20;;
80799;SDS011;70202;52.238;10.680;2023-08-06T01:41:54;0.60;;;0.40;;
80799;SDS011;70202;52.238;10.680;2023-08-06T01:42:55;0.90;;;0.50;;
80799;SDS011;70202;52.238;10.680;2023-08-06T01:43:55;0.30;;;0.22;;
80799;SDS011;70202;52.238;10.680;2023-08-06T01:44:56;1.52;;;0.68;;
80799;SDS011;70202;52.238;10.680;2023-08-06T01:45:56;0.35;;;0.30;;
80799;SDS011;70202;52.238;10.680;2023-08-06T01:46:56;0.40;;;0.38;;
80799;SDS011;70202;52.238;10.680;2023-08-06T01:47:57;0.45;;;0.35;;
80799;SDS011;70202;52.238;10.680;2023-08-06T01:48:57;0.47;;;0.38;;
80799;SDS011;70202;52.238;10.680;2023-08-06T01:49:57;0.30;;;0.30;;
80799;SDS011;70202;52.238;10.680;2023-08-06T01:50:58;0.40;;;0.40;;
80799;SDS011;70202;52.238;10.680;2023-08-06T01:51:58;0.40;;;0.30;;
80799;SDS011;70202;52.238;10.680;2023-08-06T01:52:59;0.60;;;0.40;;
80799;SDS011;70202;52.238;10.680;2023-08-06T01:53:59;0.85;;;0.55;;
80799;SDS011;70202;52.238;10.680;2023-08-06T01:54:59;0.80;;;0.50;;
80799;SDS011;70202;52.238;10.680;2023-08-06T01:56:00;0.95;;;0.50;;
80799;SDS011;70202;52.238;10.680;2023-08-06T01:57:00;0.80;;;0.60;;
80799;SDS011;70202;52.238;10.680;2023-08-06T01:58:00;0.70;;;0.43;;
80799;SDS011;70202;52.238;10.680;2023-08-06T01:59:01;0.60;;;0.40;;
80799;SDS011;70202;52.238;10.680;2023-08-06T02:00:01;1.17;;;0.60;;
80799;SDS011;70202;52.238;10.680;2023-08-06T02:01:03;1.25;;;0.68;;
80799;SDS011;70202;52.238;10.680;2023-08-06T02:02:03;0.68;;;0.50;;
80799;SDS011;70202;52.238;10.680;2023-08-06T02:03:04;1.10;;;0.63;;
80799;SDS011;70202;52.238;10.680;2023-08-06T02:04:04;0.60;;;0.50;;
80799;SDS011;70202;52.238;10.680;2023-08-06T02:05:05;0.88;;;0.63;;
80799;SDS011;70202;52.238;10.680;2023-08-06T02:06:05;0.75;;;0.50;;
80799;SDS011;70202;52.238;10.680;2023-08-06T02:07:06;1.05;;;0.50;;
80799;SDS011;70202;52.238;10.680;2023-08-06T02:08:06;0.93;;;0.60;;
80799;SDS011;70202;52.238;10.680;2023-08-06T02:09:07;1.05;;;0.70;;
80799;SDS011;70202;52.238;10.680;2023-08-06T02:10:07;0.88;;;0.52;;
80799;SDS011;70202;52.238;10.680;2023-08-06T02:11:08;0.60;;;0.35;;
80799;SDS011;70202;52.238;10.680;2023-08-06T02:12:08;1.52;;;0.70;;
80799;SDS011;70202;52.238;10.680;2023-08-06T02:13:09;0.50;;;0.50;;
80799;SDS011;70202;52.238;10.680;2023-08-06T02:14:09;0.40;;;0.40;;
80799;SDS011;70202;52.238;10.680;2023-08-06T02:15:09;0.60;;;0.50;;
80799;SDS011;70202;52.238;10.680;2023-08-06T02:16:10;0.75;;;0.38;;
80799;SDS011;70202;52.238;10.680;2023-08-06T02:17:10;0.55;;;0.40;;
80799;SDS011;70202;52.238;10.680;2023-08-06T02:18:10;0.95;;;0.52;;
80799;SDS011;70202;52.238;10.680;2023-08-06T02:19:11;0.60;;;0.40;;
80799;SDS011;70202;52.238;10.680;2023-08-06T02:20:11;0.88;;;0.50;;
80799;SDS011;70202;52.238;10.680;2023-08-06T02:21:12;0.40;;;0.40;;
80799;SDS011;70202;52.238;10.680;2023-08-06T02:22:12;0.90;;;0.65;;
80799;SDS011;70202;52.238;10.680;2023-08-06T02:23:12;0.52;;;0.50;;
80799;SDS011;70202;52.238;10.680;2023-08-06T02:24:13;0.88;;;0.43;;
80799;SDS011;70202;52.238;10.680;2023-08-06T02:25:13;0.80;;;0.43;;
80799;SDS011;70202;52.238;10.680;2023-08-06T02:26:14;0.73;;;0.40;;
80799;SDS011;70202;52.238;10.680;2023-08-06T02:27:14;0.77;;;0.40;;
80799;SDS011;70202;52.238;10.680;2023-08-06T02:28:14;0.75;;;0.40;;
80799;SDS011;70202;52.238;10.680;2023-08-06T02:29:15;0.90;;;0.47;;
80799;SDS011;70202;52.238;10.680;2023-08-06T02:30:15;1.15;;;0.40;;
80799;SDS011;70202;52.238;10.680;2023-08-06T02:31:15;0.47;;;0.40;;
80799;SDS011;70202;52.238;10.680;2023-08-06T02:32:16;0.40;;;0.40;;
80799;SDS011;70202;52.238;10.680;2023-08-06T02:33:16;0.98;;;0.55;;
80799;SDS011;70202;52.238;10.680;2023-08-06T02:34:17;0.55;;;0.52;;
80799;SDS011;70202;52.238;10.680;2023-08-06T02:35:17;0.90;;;0.60;;
80799;SDS011;70202;52.238;10.680;2023-08-06T02:36:17;0.43;;;0.40;;
80799;SDS011;70202;52.238;10.680;2023-08-06T02:37:18;0.63;;;0.40;;
80799;SDS011;70202;52.238;10.680;2023-08-06T02:38:18;0.80;;;0.40;;
80799;SDS011;70202;52.238;10.680;2023-08-06T02:39:18;0.82;;;0.65;;
80799;SDS011;70202;52.238;10.680;2023-08-06T02:40:19;1.05;;;0.60;;
80799;SDS011;70202;52.238;10.680;2023-08-06T02:41:19;0.47;;;0.30;;
80799;SDS011;70202;52.238;10.680;2023-08-06T02:42:20;1.10;;;0.60;;
80799;SDS011;70202;52.238;10.680;2023-08-06T02:43:20;1.13;;;0.60;;
80799;SDS011;70202;52.238;10.680;2023-08-06T02:44:20;0.80;;;0.80;;
80799;SDS011;70202;52.238;10.680;2023-08-06T02:45:21;0.88;;;0.60;;
80799;SDS011;70202;52.238;10.680;2023-08-06T02:46:21;0.90;;;0.57;;
80799;SDS011;70202;52.238;10.680;2023-08-06T02:47:22;0.93;;;0.50;;
80799;SDS011;70202;52.238;10.680;2023-08-06T02:48:22;0.60;;;0.47;;
80799;SDS011;70202;52.238;10.680;2023-08-06T02:49:23;0.30;;;0.30;;
80799;SDS011;70202;52.238;10.680;2023-08-06T02:50:23;0.60;;;0.50;;
80799;SDS011;70202;52.238;10.680;2023-08-06T02:51:23;1.63;;;0.50;;
80799;SDS011;70202;52.238;10.680;2023-08-06T02:52:24;0.52;;;0.40;;
80799;SDS011;70202;52.238;10.680;2023-08-06T02:53:24;0.30;;;0.30;;
80799;SDS011;70202;52.238;10.680;2023-08-06T02:54:25;0.55;;;0.50;;
80799;SDS011;70202;52.238;10.680;2023-08-06T02:55:25;0.90;;;0.50;;
80799;SDS011;70202;52.238;10.680;2023-08-06T02:56:25;0.63;;;0.35;;
80799;SDS011;70202;52.238;10.680;2023-08-06T02:57:26;0.90;;;0.60;;
80799;SDS011;70202;52.238;10.680;2023-08-06T02:58:26;1.00;;;0.45;;
80799;SDS011;70202;52.238;10.680;2023-08-06T02:59:27;0.55;;;0.30;;
80799;SDS011;70202;52.238;10.680;2023-08-06T03:00:27;1.30;;;0.40;;
80799;SDS011;70202;52.238;10.680;2023-08-06T03:01:27;0.55;;;0.40;;
80799;SDS011;70202;52.238;10.680;2023-08-06T03:02:28;0.32;;;0.30;;
80799;SDS011;70202;52.238;10.680;2023-08-06T03:03:31;0.65;;;0.40;;
80799;SDS011;70202;52.238;10.680;2023-08-06T03:04:32;0.20;;;0.20;;
80799;SDS011;70202;52.238;10.680;2023-08-06T03:05:32;0.70;;;0.40;;
80799;SDS011;70202;52.238;10.680;2023-08-06T03:06:32;0.50;;;0.30;;
80799;SDS011;70202;52.238;10.680;2023-08-06T03:07:33;0.80;;;0.60;;
80799;SDS011;70202;52.238;10.680;2023-08-06T03:08:34;0.98;;;0.50;;
80799;SDS011;70202;52.238;10.680;2023-08-06T03:09:34;0.30;;;0.30;;
80799;SDS011;70202;52.238;10.680;2023-08-06T03:10:34;0.73;;;0.50;;
80799;SDS011;70202;52.238;10.680;2023-08-06T03:11:35;0.40;;;0.40;;
80799;SDS011;70202;52.238;10.680;2023-08-06T03:12:35;0.70;;;0.38;;
80799;SDS011;70202;52.238;10.680;2023-08-06T03:13:35;0.57;;;0.40;;
80799;SDS011;70202;52.238;10.680;2023-08-06T03:14:36;0.63;;;0.43;;
80799;SDS011;70202;52.238;10.680;2023-08-06T03:15:36;1.20;;;0.50;;
80799;SDS011;70202;52.238;10.680;2023-08-06T03:16:37;0.57;;;0.47;;
80799;SDS011;70202;52.238;10.680;2023-08-06T03:17:38;0.50;;;0.40;;
80799;SDS011;70202;52.238;10.680;2023-08-06T03:18:38;0.40;;;0.40;;
80799;SDS011;70202;52.238;10.680;2023-08-06T03:19:39;0.90;;;0.55;;
80799;SDS011;70202;52.238;10.680;2023-08-06T03:20:39;0.35;;;0.30;;
80799;SDS011;70202;52.238;10.680;2023-08-06T03:21:40;0.52;;;0.40;;
80799;SDS011;70202;52.238;10.680;2023-08-06T03:22:40;0.70;;;0.50;;
80799;SDS011;70202;52.238;10.680;2023-08-06T03:23:40;1.27;;;0.60;;
80799;SDS011;70202;52.238;10.680;2023-08-06T03:24:41;0.88;;;0.50;;
80799;SDS011;70202;52.238;10.680;2023-08-06T03:25:41;0.50;;;0.38;;
80799;SDS011;70202;52.238;10.680;2023-08-06T03:26:41;0.55;;;0.50;;
80799;SDS011;70202;52.238;10.680;2023-08-06T03:27:42;0.80;;;0.52;;
80799;SDS011;70202;52.238;10.680;2023-08-06T03:28:42;0.60;;;0.35;;
80799;SDS011;70202;52.238;10.680;2023-08-06T03:29:43;1.60;;;0.60;;
80799;SDS011;70202;52.238;10.680;2023-08-06T03:30:44;0.70;;;0.50;;
80799;SDS011;70202;52.238;10.680;2023-08-06T03:31:44;0.57;;;0.43;;
80799;SDS011;70202;52.238;10.680;2023-08-06T03:32:44;0.80;;;0.60;;
80799;SDS011;70202;52.238;10.680;2023-08-06T03:33:45;0.45;;;0.40;;
80799;SDS011;70202;52.238;10.680;2023-08-06T03:34:45;0.25;;;0.25;;
80799;SDS011;70202;52.238;10.680;2023-08-06T03:35:46;0.47;;;0.40;;
80799;SDS011;70202;52.238;10.680;2023-08-06T03:36:46;0.85;;;0.40;;
80799;SDS011;70202;52.238;10.680;2023-08-06T03:37:46;0.60;;;0.35;;
80799;SDS011;70202;52.238;10.680;2023-08-06T03:38:47;0.43;;;0.38;;
80799;SDS011;70202;52.238;10.680;2023-08-06T03:39:47;0.80;;;0.40;;
80799;SDS011;70202;52.238;10.680;2023-08-06T03:40:48;0.85;;;0.43;;
80799;SDS011;70202;52.238;10.680;2023-08-06T03:41:49;0.57;;;0.40;;
80799;SDS011;70202;52.238;10.680;2023-08-06T03:42:49;0.38;;;0.35;;
80799;SDS011;70202;52.238;10.680;2023-08-06T03:43:49;0.40;;;0.30;;
80799;SDS011;70202;52.238;10.680;2023-08-06T03:44:50;0.47;;;0.25;;
80799;SDS011;70202;52.238;10.680;2023-08-06T03:45:50;0.43;;;0.40;;
80799;SDS011;70202;52.238;10.680;2023-08-06T03:46:51;0.40;;;0.35;;
80799;SDS011;70202;52.238;10.680;2023-08-06T03:47:51;0.45;;;0.45;;
80799;SDS011;70202;52.238;10.680;2023-08-06T03:48:51;1.02;;;0.40;;
80799;SDS011;70202;52.238;10.680;2023-08-06T03:49:52;0.45;;;0.32;;
80799;SDS011;70202;52.238;10.680;2023-08-06T03:50:52;0.28;;;0.28;;
80799;SDS011;70202;52.238;10.680;2023-08-06T03:51:53;1.05;;;0.40;;
80799;SDS011;70202;52.238;10.680;2023-08-06T03:52:53;0.55;;;0.38;;
80799;SDS011;70202;52.238;10.680;2023-08-06T03:53:53;1.05;;;0.50;;
80799;SDS011;70202;52.238;10.680;2023-08-06T03:54:54;0.50;;;0.40;;
80799;SDS011;70202;52.238;10.680;2023-08-06T03:55:54;0.73;;;0.43;;
80799;SDS011;70202;52.238;10.680;2023-08-06T03:57:59;0.50;;;0.40;;
80799;SDS011;70202;52.238;10.680;2023-08-06T03:59:00;0.70;;;0.30;;
80799;SDS011;70202;52.238;10.680;2023-08-06T04:00:00;0.35;;;0.35;;
80799;SDS011;70202;52.238;10.680;2023-08-06T04:01:01;0.50;;;0.30;;
80799;SDS011;70202;52.238;10.680;2023-08-06T04:02:03;0.93;;;0.40;;
80799;SDS011;70202;52.238;10.680;2023-08-06T04:03:03;0.60;;;0.40;;
80799;SDS011;70202;52.238;10.680;2023-08-06T04:04:03;0.25;;;0.22;;
80799;SDS011;70202;52.238;10.680;2023-08-06T04:05:04;0.30;;;0.25;;
80799;SDS011;70202;52.238;10.680;2023-08-06T04:06:04;0.40;;;0.30;;
80799;SDS011;70202;52.238;10.680;2023-08-06T04:07:05;0.25;;;0.25;;
80799;SDS011;70202;52.238;10.680;2023-08-06T04:08:05;1.42;;;0.50;;
80799;SDS011;70202;52.238;10.680;2023-08-06T04:09:05;1.25;;;0.40;;
80799;SDS011;70202;52.238;10.680;2023-08-06T04:10:06;0.98;;;0.30;;
80799;SDS011;70202;52.238;10.680;2023-08-06T04:11:06;0.40;;;0.30;;
80799;SDS011;70202;52.238;10.680;2023-08-06T04:12:07;0.85;;;0.40;;
80799;SDS011;70202;52.238;10.680;2023-08-06T04:13:07;0.50;;;0.30;;
80799;SDS011;70202;52.238;10.680;2023-08-06T04:14:08;0.32;;;0.28;;
80799;SDS011;70202;52.238;10.680;2023-08-06T04:15:08;0.63;;;0.40;;
80799;SDS011;70202;52.238;10.680;2023-08-06T04:16:09;0.45;;;0.40;;
80799;SDS011;70202;52.238;10.680;2023-08-06T04:17:09;0.50;;;0.30;;
80799;SDS011;70202;52.238;10.680;2023-08-06T04:18:09;0.50;;;0.22;;
80799;SDS011;70202;52.238;10.680;2023-08-06T04:19:10;0.20;;;0.20;;
80799;SDS011;70202;52.238;10.680;2023-08-06T04:20:10;0.90;;;0.30;;
80799;SDS011;70202;52.238;10.680;2023-08-06T04:21:11;0.32;;;0.28;;
80799;SDS011;70202;52.238;10.680;2023-08-06T04:22:11;0.60;;;0.30;;
80799;SDS011;70202;52.238;10.680;2023-08-06T04:23:12;0.55;;;0.40;;
80799;SDS011;70202;52.238;10.680;2023-08-06T04:24:12;0.35;;;0.25;;
80799;SDS011;70202;52.238;10.680;2023-08-06T04:25:13;0.63;;;0.30;;
80799;SDS011;70202;52.238;10.680;2023-08-06T04:26:13;2.08;;;0.47;;
80799;SDS011;70202;52.238;10.680;2023-08-06T04:27:14;0.57;;;0.32;;
80799;SDS011;70202;52.238;10.680;2023-08-06T04:28:15;0.98;;;0.40;;
80799;SDS011;70202;52.238;10.680;2023-08-06T04:29:15;0.45;;;0.32;;
80799;SDS011;70202;52.238;10.680;2023-08-06T04:30:16;0.88;;;0.30;;
80799;SDS011;70202;52.238;10.680;2023-08-06T04:31:16;0.45;;;0.30;;
80799;SDS011;70202;52.238;10.680;2023-08-06T04:32:17;0.30;;;0.30;;
80799;SDS011;70202;52.238;10.680;2023-08-06T04:33:19;0.50;;;0.20;;
80799;SDS011;70202;52.238;10.680;2023-08-06T04:34:20;0.45;;;0.30;;
80799;SDS011;70202;52.238;10.680;2023-08-06T04:35:21;1.38;;;0.52;;
80799;SDS011;70202;52.238;10.680;2023-08-06T04:36:21;0.20;;;0.15;;
80799;SDS011;70202;52.238;10.680;2023-08-06T04:37:21;1.13;;;0.47;;
80799;SDS011;70202;52.238;10.680;2023-08-06T04:38:25;0.65;;;0.32;;
80799;SDS011;70202;52.238;10.680;2023-08-06T04:39:26;0.32;;;0.20;;
80799;SDS011;70202;52.238;10.680;2023-08-06T04:40:26;0.60;;;0.28;;
80799;SDS011;70202;52.238;10.680;2023-08-06T04:41:27;0.30;;;0.22;;
80799;SDS011;70202;52.238;10.680;2023-08-06T04:42:27;0.40;;;0.30;;
80799;SDS011;70202;52.238;10.680;2023-08-06T04:43:27;0.45;;;0.22;;
80799;SDS011;70202;52.238;10.680;2023-08-06T04:44:28;1.17;;;0.30;;
80799;SDS011;70202;52.238;10.680;2023-08-06T04:45:28;0.93;;;0.40;;
80799;SDS011;70202;52.238;10.680;2023-08-06T04:46:28;1.05;;;0.30;;
80799;SDS011;70202;52.238;10.680;2023-08-06T04:47:29;0.73;;;0.43;;
80799;SDS011;70202;52.238;10.680;2023-08-06T04:48:29;0.30;;;0.20;;
80799;SDS011;70202;52.238;10.680;2023-08-06T04:49:30;0.20;;;0.17;;
80799;SDS011;70202;52.238;10.680;2023-08-06T04:50:30;0.20;;;0.20;;
80799;SDS011;70202;52.238;10.680;2023-08-06T04:51:30;0.40;;;0.30;;
80799;SDS011;70202;52.238;10.680;2023-08-06T04:52:31;0.20;;;0.20;;
80799;SDS011;70202;52.238;10.680;2023-08-06T04:53:32;0.52;;;0.30;;
80799;SDS011;70202;52.238;10.680;2023-08-06T04:54:33;0.40;;;0.22;;
80799;SDS011;70202;52.238;10.680;2023-08-06T04:55:33;0.50;;;0.20;;
80799;SDS011;70202;52.238;10.680;2023-08-06T04:56:34;0.25;;;0.17;;
80799;SDS011;70202;52.238;10.680;2023-08-06T04:57:34;1.20;;;0.47;;
80799;SDS011;70202;52.238;10.680;2023-08-06T04:58:34;0.57;;;0.30;;
80799;SDS011;70202;52.238;10.680;2023-08-06T04:59:35;0.98;;;0.40;;
80799;SDS011;70202;52.238;10.680;2023-08-06T05:00:35;1.08;;;0.40;;
80799;SDS011;70202;52.238;10.680;2023-08-06T05:01:36;0.60;;;0.30;;
80799;SDS011;70202;52.238;10.680;2023-08-06T05:02:36;0.15;;;0.13;;
80799;SDS011;70202;52.238;10.680;2023-08-06T05:03:38;0.68;;;0.40;;
80799;SDS011;70202;52.238;10.680;2023-08-06T05:04:39;0.20;;;0.20;;
80799;SDS011;70202;52.238;10.680;2023-08-06T05:05:40;0.70;;;0.25;;
80799;SDS011;70202;52.238;10.680;2023-08-06T05:06:41;0.10;;;0.10;;
80799;SDS011;70202;52.238;10.680;2023-08-06T05:07:41;0.13;;;0.10;;
80799;SDS011;70202;52.238;10.680;2023-08-06T05:08:42;0.85;;;0.32;;
80799;SDS011;70202;52.238;10.680;2023-08-06T05:09:42;0.30;;;0.30;;
80799;SDS011;70202;52.238;10.680;2023-08-06T05:10:43;0.82;;;0.50;;
80799;SDS011;70202;52.238;10.680;2023-08-06T05:11:44;0.40;;;0.20;;
80799;SDS011;70202;52.238;10.680;2023-08-06T05:12:44;1.40;;;0.45;;
80799;SDS011;70202;52.238;10.680;2023-08-06T05:13:45;1.08;;;0.40;;
80799;SDS011;70202;52.238;10.680;2023-08-06T05:14:45;0.50;;;0.30;;
80799;SDS011;70202;52.238;10.680;2023-08-06T05:15:45;0.15;;;0.13;;
80799;SDS011;70202;52.238;10.680;2023-08-06T05:16:46;0.90;;;0.30;;
80799;SDS011;70202;52.238;10.680;2023-08-06T05:17:46;0.30;;;0.30;;
80799;SDS011;70202;52.238;10.680;2023-08-06T05:18:47;1.13;;;0.40;;
80799;SDS011;70202;52.238;10.680;2023-08-06T05:19:47;0.38;;;0.20;;
80799;SDS011;70202;52.238;10.680;2023-08-06T05:20:48;0.32;;;0.30;;
80799;SDS011;70202;52.238;10.680;2023-08-06T05:21:48;0.57;;;0.30;;
80799;SDS011;70202;52.238;10.680;2023-08-06T05:22:48;0.80;;;0.20;;
80799;SDS011;70202;52.238;10.680;2023-08-06T05:23:49;0.85;;;0.30;;
80799;SDS011;70202;52.238;10.680;2023-08-06T05:24:49;0.20;;;0.20;;
80799;SDS011;70202;52.238;10.680;2023-08-06T05:25:49;0.52;;;0.20;;
80799;SDS011;70202;52.238;10.680;2023-08-06T05:26:50;0.20;;;0.20;;
80799;SDS011;70202;52.238;10.680;2023-08-06T05:27:50;0.43;;;0.22;;
80799;SDS011;70202;52.238;10.680;2023-08-06T05:28:51;0.10;;;0.10;;
80799;SDS011;70202;52.238;10.680;2023-08-06T05:29:54;0.50;;;0.30;;
80799;SDS011;70202;52.238;10.680;2023-08-06T05:30:55;0.40;;;0.30;;
80799;SDS011;70202;52.238;10.680;2023-08-06T05:31:55;0.30;;;0.30;;
80799;SDS011;70202;52.238;10.680;2023-08-06T05:32:56;0.20;;;0.20;;
80799;SDS011;70202;52.238;10.680;2023-08-06T05:33:56;0.22;;;0.20;;
80799;SDS011;70202;52.238;10.680;2023-08-06T05:34:57;0.43;;;0.30;;
80799;SDS011;70202;52.238;10.680;2023-08-06T05:35:57;0.50;;;0.10;;
80799;SDS011;70202;52.238;10.680;2023-08-06T05:36:58;0.73;;;0.22;;
80799;SDS011;70202;52.238;10.680;2023-08-06T05:37:58;0.30;;;0.20;;
80799;SDS011;70202;52.238;10.680;2023-08-06T05:38:58;0.30;;;0.20;;
80799;SDS011;70202;52.238;10.680;2023-08-06T05:39:59;0.22;;;0.20;;
80799;SDS011;70202;52.238;10.680;2023-08-06T05:40:59;0.35;;;0.25;;
80799;SDS011;70202;52.238;10.680;2023-08-06T05:41:59;0.43;;;0.28;;
80799;SDS011;70202;52.238;10.680;2023-08-06T05:43:00;0.85;;;0.30;;
80799;SDS011;70202;52.238;10.680;2023-08-06T05:44:00;0.20;;;0.20;;
80799;SDS011;70202;52.238;10.680;2023-08-06T05:45:01;0.88;;;0.32;;
80799;SDS011;70202;52.238;10.680;2023-08-06T05:46:01;0.38;;;0.28;;
80799;SDS011;70202;52.238;10.680;2023-08-06T05:47:02;1.20;;;0.30;;
80799;SDS011;70202;52.238;10.680;2023-08-06T05:48:02;0.88;;;0.30;;
80799;SDS011;70202;52.238;10.680;2023-08-06T05:49:03;0.28;;;0.20;;
80799;SDS011;70202;52.238;10.680;2023-08-06T05:50:03;0.55;;;0.20;;
80799;SDS011;70202;52.238;10.680;2023-08-06T05:51:04;0.17;;;0.17;;
80799;SDS011;70202;52.238;10.680;2023-08-06T05:52:04;0.10;;;0.10;;
80799;SDS011;70202;52.238;10.680;2023-08-06T05:53:06;0.30;;;0.13;;
80799;SDS011;70202;52.238;10.680;2023-08-06T05:54:06;0.95;;;0.30;;
80799;SDS011;70202;52.238;10.680;2023-08-06T05:55:07;0.30;;;0.15;;
80799;SDS011;70202;52.238;10.680;2023-08-06T05:56:07;0.17;;;0.17;;
80799;SDS011;70202;52.238;10.680;2023-08-06T05:57:08;0.47;;;0.30;;
80799;SDS011;70202;52.238;10.680;2023-08-06T05:58:08;0.10;;;0.10;;
80799;SDS011;70202;52.238;10.680;2023-08-06T05:59:09;0.65;;;0.20;;
80799;SDS011;70202;52.238;10.680;2023-08-06T06:00:09;0.57;;;0.20;;
80799;SDS011;70202;52.238;10.680;2023-08-06T06:01:10;0.35;;;0.32;;
80799;SDS011;70202;52.238;10.680;2023-08-06T06:02:10;1.10;;;0.30;;
80799;SDS011;70202;52.238;10.680;2023-08-06T06:03:11;0.35;;;0.30;;
80799;SDS011;70202;52.238;10.680;2023-08-06T06:04:11;0.50;;;0.30;;
80799;SDS011;70202;52.238;10.680;2023-08-06T06:05:11;1.65;;;0.47;;
80799;SDS011;70202;52.238;10.680;2023-08-06T06:06:12;1.23;;;0.40;;
80799;SDS011;70202;52.238;10.680;2023-08-06T06:07:12;0.82;;;0.30;;